createdAt,value
2016-11-17T00:00:13.490Z,1003.11
2016-11-17T00:01:13.471Z,1003.13
2016-11-17T00:02:13.458Z,1003.13
2016-11-17T00:03:13.443Z,1003.14
2016-11-17T00:04:13.424Z,1003.19
2016-11-17T00:05:13.412Z,1003.23
2016-11-17T00:06:13.391Z,1003.21
2016-11-17T00:07:13.376Z,1003.19
2016-11-17T00:08:13.361Z,1003.17
2016-11-17T00:09:13.345Z,1003.2
2016-11-17T00:10:13.332Z,1003.15
2016-11-17T00:11:13.311Z,1003.09
2016-11-17T00:12:13.301Z,1003.06
2016-11-17T00:13:13.281Z,1003.11
2016-11-17T00:14:13.273Z,1003.08
2016-11-17T00:15:13.248Z,1003.06
2016-11-17T00:16:13.233Z,1003.02
2016-11-17T00:17:13.218Z,1003
2016-11-17T00:18:13.203Z,1003.04
2016-11-17T00:19:13.185Z,1003.08
2016-11-17T00:20:13.172Z,1003.11
2016-11-17T00:21:13.153Z,1003.06
2016-11-17T00:22:13.138Z,1003.11
2016-11-17T00:23:13.123Z,1003.14
2016-11-17T00:24:13.105Z,1003.15
2016-11-17T00:25:13.094Z,1003.08
2016-11-17T00:26:13.073Z,1003.1
2016-11-17T00:27:13.058Z,1003.02
2016-11-17T00:28:13.043Z,1003.03
2016-11-17T00:29:13.025Z,1002.98
2016-11-17T00:30:13.010Z,1002.98
2016-11-17T00:31:12.995Z,1002.95
2016-11-17T00:32:12.978Z,1002.96
2016-11-17T00:33:12.962Z,1002.98
2016-11-17T00:34:12.943Z,1002.97
2016-11-17T00:35:12.932Z,1002.98
2016-11-17T00:36:12.911Z,1002.96
2016-11-17T00:37:12.896Z,1002.94
2016-11-17T00:38:12.882Z,1002.91
2016-11-17T00:39:12.865Z,1002.89
2016-11-17T00:40:12.850Z,1002.87
2016-11-17T00:41:12.833Z,1002.81
2016-11-17T00:42:12.820Z,1002.84
2016-11-17T00:43:12.800Z,1002.79
2016-11-17T00:44:12.784Z,1002.88
2016-11-17T00:45:12.770Z,1002.83
2016-11-17T00:46:12.754Z,1002.84
2016-11-17T00:47:12.738Z,1002.85
2016-11-17T00:48:12.725Z,1002.78
2016-11-17T00:49:12.705Z,1002.79
2016-11-17T00:50:12.694Z,1002.75
2016-11-17T00:51:12.671Z,1002.8
2016-11-17T00:52:12.659Z,1002.78
2016-11-17T00:53:12.640Z,1002.78
2016-11-17T00:54:12.625Z,1002.76
2016-11-17T00:55:12.605Z,1002.73
2016-11-17T00:56:12.592Z,1002.77
2016-11-17T00:57:12.578Z,1002.71
2016-11-17T00:58:12.560Z,1002.74
2016-11-17T00:59:12.547Z,1002.71
2016-11-17T01:00:12.529Z,1002.7
2016-11-17T01:01:12.514Z,1002.71
2016-11-17T01:02:12.495Z,1002.66
2016-11-17T01:03:12.480Z,1002.73
2016-11-17T01:04:12.464Z,1002.67
2016-11-17T01:05:12.447Z,1002.65
2016-11-17T01:06:12.432Z,1002.61
2016-11-17T01:07:12.414Z,1002.71
2016-11-17T01:08:12.399Z,1002.67
2016-11-17T01:09:12.382Z,1002.64
2016-11-17T01:10:12.364Z,1002.58
2016-11-17T01:11:12.352Z,1002.58
2016-11-17T01:12:12.336Z,1002.57
2016-11-17T01:13:12.315Z,1002.62
2016-11-17T01:14:12.306Z,1002.61
2016-11-17T01:15:12.287Z,1002.68
2016-11-17T01:16:12.272Z,1002.71
2016-11-17T01:17:12.253Z,1002.69
2016-11-17T01:18:12.237Z,1002.74
2016-11-17T01:19:12.222Z,1002.73
2016-11-17T01:20:12.205Z,1002.65
2016-11-17T01:21:12.188Z,1002.63
2016-11-17T01:22:12.175Z,1002.62
2016-11-17T01:23:12.157Z,1002.65
2016-11-17T01:24:12.140Z,1002.6
2016-11-17T01:25:12.125Z,1002.67
2016-11-17T01:26:12.108Z,1002.63
2016-11-17T01:27:12.095Z,1002.62
2016-11-17T01:28:12.077Z,1002.59
2016-11-17T01:29:12.058Z,1002.58
2016-11-17T01:30:12.044Z,1002.57
2016-11-17T01:31:12.036Z,1002.59
2016-11-17T01:32:12.010Z,1002.55
2016-11-17T01:33:11.997Z,1002.56
2016-11-17T01:34:11.982Z,1002.52
2016-11-17T01:35:11.964Z,1002.5
2016-11-17T01:36:11.946Z,1002.47
2016-11-17T01:37:11.932Z,1002.51
2016-11-17T01:38:11.917Z,1002.48
2016-11-17T01:39:11.899Z,1002.43
2016-11-17T01:40:11.884Z,1002.47
2016-11-17T01:41:11.867Z,1002.46
2016-11-17T01:42:11.851Z,1002.45
2016-11-17T01:43:11.833Z,1002.43
2016-11-17T01:44:11.819Z,1002.42
2016-11-17T01:45:11.800Z,1002.39
2016-11-17T01:46:11.782Z,1002.32
2016-11-17T01:47:11.772Z,1002.27
2016-11-17T01:48:11.754Z,1002.27
2016-11-17T01:49:11.739Z,1002.29
2016-11-17T01:50:11.721Z,1002.3
2016-11-17T01:51:11.705Z,1002.2
2016-11-17T01:52:11.689Z,1002.24
2016-11-17T01:53:11.670Z,1002.22
2016-11-17T01:54:11.655Z,1002.23
2016-11-17T01:55:11.640Z,1002.21
2016-11-17T01:56:11.623Z,1002.23
2016-11-17T01:57:11.612Z,1002.18
2016-11-17T01:58:11.590Z,1002.17
2016-11-17T01:59:11.575Z,1002.14
2016-11-17T02:00:11.559Z,1002.15
2016-11-17T02:01:11.544Z,1002.14
2016-11-17T02:02:11.528Z,1002.1
2016-11-17T02:03:11.512Z,1002.14
2016-11-17T02:04:11.498Z,1002.13
2016-11-17T02:05:11.479Z,1002.18
2016-11-17T02:06:11.467Z,1002.19
2016-11-17T02:07:11.444Z,1002.19
2016-11-17T02:08:11.429Z,1002.22
2016-11-17T02:09:11.412Z,1002.17
2016-11-17T02:10:11.395Z,1002.09
2016-11-17T02:11:11.382Z,1002.13
2016-11-17T02:12:11.364Z,1002.07
2016-11-17T02:13:11.347Z,1002
2016-11-17T02:14:11.333Z,1002
2016-11-17T02:15:11.316Z,1001.96
2016-11-17T02:16:11.297Z,1002.04
2016-11-17T02:17:11.285Z,1002.02
2016-11-17T02:18:11.263Z,1002.04
2016-11-17T02:19:11.248Z,1002.07
2016-11-17T02:20:11.232Z,1002.01
2016-11-17T02:21:11.220Z,1002.02
2016-11-17T02:22:11.199Z,1002
2016-11-17T02:23:11.184Z,1001.93
2016-11-17T02:24:11.167Z,1001.86
2016-11-17T02:25:11.150Z,1001.85
2016-11-17T02:26:11.135Z,1001.85
2016-11-17T02:27:11.118Z,1001.81
2016-11-17T02:28:11.101Z,1001.79
2016-11-17T02:29:11.084Z,1001.82
2016-11-17T02:30:11.068Z,1001.81
2016-11-17T02:31:11.053Z,1001.79
2016-11-17T02:32:11.037Z,1001.76
2016-11-17T02:33:11.021Z,1001.74
2016-11-17T02:34:11.003Z,1001.7
2016-11-17T02:35:10.988Z,1001.7
2016-11-17T02:36:10.971Z,1001.68
2016-11-17T02:37:10.957Z,1001.65
2016-11-17T02:38:10.936Z,1001.61
2016-11-17T02:39:10.973Z,1001.63
2016-11-17T02:40:10.905Z,1001.61
2016-11-17T02:41:10.894Z,1001.58
2016-11-17T02:42:10.872Z,1001.59
2016-11-17T02:43:10.857Z,1001.56
2016-11-17T02:44:10.838Z,1001.54
2016-11-17T02:45:10.821Z,1001.51
2016-11-17T02:46:10.806Z,1001.47
2016-11-17T02:47:10.798Z,1001.46
2016-11-17T02:48:10.773Z,1001.47
2016-11-17T02:49:10.758Z,1001.5
2016-11-17T02:50:10.743Z,1001.56
2016-11-17T02:51:10.727Z,1001.49
2016-11-17T02:52:10.711Z,1001.48
2016-11-17T02:53:10.694Z,1001.46
2016-11-17T02:54:10.677Z,1001.49
2016-11-17T02:55:10.659Z,1001.47
2016-11-17T02:56:10.647Z,1001.5
2016-11-17T02:57:10.627Z,1001.42
2016-11-17T02:58:10.613Z,1001.46
2016-11-17T02:59:10.594Z,1001.46
2016-11-17T03:00:10.581Z,1001.46
2016-11-17T03:01:10.561Z,1001.45
2016-11-17T03:02:10.544Z,1001.44
2016-11-17T03:03:10.533Z,1001.48
2016-11-17T03:04:10.511Z,1001.47
2016-11-17T03:05:10.496Z,1001.43
2016-11-17T03:06:10.480Z,1001.42
2016-11-17T03:07:10.467Z,1001.48
2016-11-17T03:08:10.446Z,1001.49
2016-11-17T03:09:10.431Z,1001.5
2016-11-17T03:10:10.417Z,1001.4
2016-11-17T03:11:10.398Z,1001.46
2016-11-17T03:12:10.381Z,1001.42
2016-11-17T03:13:10.364Z,1001.39
2016-11-17T03:14:10.352Z,1001.42
2016-11-17T03:15:10.333Z,1001.44
2016-11-17T03:16:10.317Z,1001.41
2016-11-17T03:17:10.299Z,1001.42
2016-11-17T03:18:10.283Z,1001.49
2016-11-17T03:19:10.266Z,1001.48
2016-11-17T03:20:10.250Z,1001.49
2016-11-17T03:21:10.235Z,1001.43
2016-11-17T03:22:10.218Z,1001.46
2016-11-17T03:23:10.201Z,1001.4
2016-11-17T03:24:10.184Z,1001.38
2016-11-17T03:25:10.167Z,1001.37
2016-11-17T03:26:10.152Z,1001.35
2016-11-17T03:27:10.138Z,1001.37
2016-11-17T03:28:10.120Z,1001.37
2016-11-17T03:29:10.104Z,1001.34
2016-11-17T03:30:10.087Z,1001.38
2016-11-17T03:31:10.072Z,1001.38
2016-11-17T03:32:10.055Z,1001.41
2016-11-17T03:33:10.041Z,1001.4
2016-11-17T03:34:10.027Z,1001.39
2016-11-17T03:35:10.007Z,1001.43
2016-11-17T03:36:09.992Z,1001.46
2016-11-17T03:37:09.975Z,1001.41
2016-11-17T03:38:09.958Z,1001.37
2016-11-17T03:39:09.941Z,1001.32
2016-11-17T03:40:09.924Z,1001.24
2016-11-17T03:41:09.910Z,1001.23
2016-11-17T03:42:09.894Z,1001.17
2016-11-17T03:43:09.878Z,1001.14
2016-11-17T03:44:09.861Z,1001.16
2016-11-17T03:45:09.844Z,1001.14
2016-11-17T03:46:09.829Z,1001.08
2016-11-17T03:47:09.814Z,1001.07
2016-11-17T03:48:09.797Z,1001.01
2016-11-17T03:49:09.778Z,1000.92
2016-11-17T03:50:09.762Z,1000.89
2016-11-17T03:51:09.756Z,1000.86
2016-11-17T03:52:09.732Z,1000.85
2016-11-17T03:53:09.713Z,1000.84
2016-11-17T03:54:09.700Z,1000.89
2016-11-17T03:55:09.685Z,1000.97
2016-11-17T03:56:09.672Z,1000.97
2016-11-17T03:57:09.649Z,1000.95
2016-11-17T03:58:09.635Z,1000.84
2016-11-17T03:59:09.618Z,1000.84
2016-11-17T04:00:09.601Z,1000.83
2016-11-17T04:01:09.584Z,1000.85
2016-11-17T04:02:09.567Z,1000.76
2016-11-17T04:03:09.551Z,1000.74
2016-11-17T04:04:09.535Z,1000.69
2016-11-17T04:05:09.521Z,1000.62
2016-11-17T04:06:09.502Z,1000.55
2016-11-17T04:07:09.487Z,1000.5
2016-11-17T04:08:09.470Z,1000.48
2016-11-17T04:09:09.459Z,1000.49
2016-11-17T04:10:09.437Z,1000.47
2016-11-17T04:11:09.424Z,1000.43
2016-11-17T04:12:09.405Z,1000.49
2016-11-17T04:13:09.389Z,1000.5
2016-11-17T04:14:09.373Z,1000.49
2016-11-17T04:15:09.356Z,1000.52
2016-11-17T04:16:09.339Z,1000.5
2016-11-17T04:17:09.323Z,1000.49
2016-11-17T04:18:09.310Z,1000.47
2016-11-17T04:19:09.291Z,1000.51
2016-11-17T04:20:09.278Z,1000.45
2016-11-17T04:21:09.259Z,1000.43
2016-11-17T04:22:09.245Z,1000.44
2016-11-17T04:23:09.224Z,1000.43
2016-11-17T04:24:09.209Z,1000.3
2016-11-17T04:25:09.192Z,1000.33
2016-11-17T04:26:09.175Z,1000.28
2016-11-17T04:27:09.160Z,1000.31
2016-11-17T04:28:09.143Z,1000.35
2016-11-17T04:29:09.128Z,1000.32
2016-11-17T04:30:09.109Z,1000.32
2016-11-17T04:31:09.095Z,1000.29
2016-11-17T04:32:09.080Z,1000.36
2016-11-17T04:33:09.060Z,1000.39
2016-11-17T04:34:09.043Z,1000.46
2016-11-17T04:35:09.027Z,1000.47
2016-11-17T04:36:09.013Z,1000.49
2016-11-17T04:37:08.993Z,1000.45
2016-11-17T04:38:08.982Z,1000.47
2016-11-17T04:39:08.960Z,1000.53
2016-11-17T04:40:08.947Z,1000.6
2016-11-17T04:41:08.928Z,1000.46
2016-11-17T04:42:08.911Z,1000.32
2016-11-17T04:43:08.894Z,1000.34
2016-11-17T04:44:08.883Z,1000.34
2016-11-17T04:45:08.862Z,1000.33
2016-11-17T04:46:08.842Z,1000.33
2016-11-17T04:47:08.829Z,1000.3
2016-11-17T04:48:08.810Z,1000.33
2016-11-17T04:49:08.795Z,1000.29
2016-11-17T04:50:08.778Z,1000.28
2016-11-17T04:51:08.761Z,1000.31
2016-11-17T04:52:08.745Z,1000.28
2016-11-17T04:53:08.728Z,1000.16
2016-11-17T04:54:08.716Z,1000.17
2016-11-17T04:55:08.696Z,1000.19
2016-11-17T04:56:08.678Z,1000.16
2016-11-17T04:57:08.661Z,1000.15
2016-11-17T04:58:08.644Z,1000.17
2016-11-17T04:59:08.627Z,1000.16
2016-11-17T05:00:08.612Z,1000.14
2016-11-17T05:01:08.595Z,1000.12
2016-11-17T05:02:08.578Z,1000.11
2016-11-17T05:03:08.563Z,1000.06
2016-11-17T05:04:08.546Z,1000.02
2016-11-17T05:05:08.531Z,1000.01
2016-11-17T05:06:08.513Z,1000.02
2016-11-17T05:07:08.496Z,999.97
2016-11-17T05:08:08.480Z,999.92
2016-11-17T05:09:08.466Z,999.89
2016-11-17T05:10:08.445Z,999.87
2016-11-17T05:11:08.427Z,999.9
2016-11-17T05:12:08.416Z,999.85
2016-11-17T05:13:08.397Z,999.89
2016-11-17T05:14:08.382Z,999.85
2016-11-17T05:15:08.363Z,999.87
2016-11-17T05:16:08.346Z,999.85
2016-11-17T05:17:08.330Z,999.92
2016-11-17T05:18:08.313Z,999.93
2016-11-17T05:19:08.297Z,999.93
2016-11-17T05:20:08.283Z,999.9
2016-11-17T05:21:08.268Z,999.87
2016-11-17T05:22:08.249Z,999.94
2016-11-17T05:23:08.235Z,999.94
2016-11-17T05:24:08.218Z,999.88
2016-11-17T05:25:08.197Z,999.91
2016-11-17T05:26:08.425Z,999.89
2016-11-17T05:27:08.167Z,999.89
2016-11-17T05:28:08.149Z,999.82
2016-11-17T05:29:08.133Z,999.78
2016-11-17T05:30:08.178Z,999.74
2016-11-17T05:31:08.102Z,999.77
2016-11-17T05:32:08.085Z,999.84
2016-11-17T05:33:08.068Z,999.89
2016-11-17T05:34:08.056Z,999.89
2016-11-17T05:35:08.036Z,999.89
2016-11-17T05:36:08.022Z,999.86
2016-11-17T05:37:08.005Z,999.94
2016-11-17T05:38:07.989Z,999.93
2016-11-17T05:39:07.971Z,999.97
2016-11-17T05:40:07.953Z,999.99
2016-11-17T05:41:07.940Z,1000
2016-11-17T05:42:07.924Z,1000.02
2016-11-17T05:43:07.908Z,1000
2016-11-17T05:44:07.889Z,999.99
2016-11-17T05:45:07.874Z,999.99
2016-11-17T05:46:07.858Z,999.94
2016-11-17T05:47:07.840Z,1000.02
2016-11-17T05:48:07.825Z,999.96
2016-11-17T05:49:07.807Z,999.97
2016-11-17T05:50:07.790Z,999.98
2016-11-17T05:51:07.777Z,999.95
2016-11-17T05:52:07.761Z,1000.02
2016-11-17T05:53:07.753Z,999.98
2016-11-17T05:54:07.727Z,999.92
2016-11-17T05:55:07.710Z,999.91
2016-11-17T05:56:07.695Z,999.88
2016-11-17T05:57:07.680Z,999.88
2016-11-17T05:58:07.663Z,999.91
2016-11-17T05:59:07.647Z,999.89
2016-11-17T06:00:07.636Z,999.91
2016-11-17T06:01:07.615Z,999.88
2016-11-17T06:02:07.598Z,999.83
2016-11-17T06:03:07.581Z,999.84
2016-11-17T06:04:07.568Z,999.8
2016-11-17T06:05:07.552Z,999.79
2016-11-17T06:06:07.535Z,999.84
2016-11-17T06:07:07.518Z,999.83
2016-11-17T06:08:07.503Z,999.83
2016-11-17T06:09:07.486Z,999.87
2016-11-17T06:10:07.470Z,999.89
2016-11-17T06:11:07.455Z,999.92
2016-11-17T06:12:07.438Z,999.91
2016-11-17T06:13:07.419Z,999.89
2016-11-17T06:14:07.406Z,999.89
2016-11-17T06:15:07.389Z,999.91
2016-11-17T06:16:07.373Z,999.92
2016-11-17T06:17:07.358Z,999.89
2016-11-17T06:18:07.342Z,999.85
2016-11-17T06:19:07.324Z,999.88
2016-11-17T06:20:07.309Z,999.88
2016-11-17T06:21:07.294Z,999.85
2016-11-17T06:22:07.278Z,999.85
2016-11-17T06:23:07.261Z,999.81
2016-11-17T06:24:07.246Z,999.82
2016-11-17T06:25:07.228Z,999.81
2016-11-17T06:26:07.215Z,999.87
2016-11-17T06:27:07.196Z,999.83
2016-11-17T06:28:07.181Z,999.85
2016-11-17T06:29:07.164Z,999.76
2016-11-17T06:30:07.148Z,999.79
2016-11-17T06:31:07.134Z,999.79
2016-11-17T06:32:07.117Z,999.77
2016-11-17T06:33:07.101Z,999.81
2016-11-17T06:34:07.082Z,999.76
2016-11-17T06:35:07.075Z,999.81
2016-11-17T06:36:07.052Z,999.82
2016-11-17T06:37:07.036Z,999.82
2016-11-17T06:38:07.018Z,999.78
2016-11-17T06:39:07.004Z,999.8
2016-11-17T06:40:06.986Z,999.77
2016-11-17T06:41:06.970Z,999.8
2016-11-17T06:42:06.956Z,999.78
2016-11-17T06:43:06.941Z,999.84
2016-11-17T06:44:06.922Z,999.79
2016-11-17T06:45:06.909Z,999.79
2016-11-17T06:46:06.908Z,999.77
2016-11-17T06:47:06.877Z,999.75
2016-11-17T06:48:06.861Z,999.78
2016-11-17T06:49:06.842Z,999.76
2016-11-17T06:50:06.829Z,999.81
2016-11-17T06:51:06.812Z,999.85
2016-11-17T06:52:06.794Z,999.84
2016-11-17T06:53:06.779Z,999.89
2016-11-17T06:54:06.762Z,999.87
2016-11-17T06:55:06.749Z,999.9
2016-11-17T06:56:06.731Z,999.89
2016-11-17T06:57:06.714Z,999.89
2016-11-17T06:58:06.699Z,999.88
2016-11-17T06:59:06.684Z,999.87
2016-11-17T07:00:06.664Z,999.97
2016-11-17T07:01:06.649Z,1000
2016-11-17T07:02:06.636Z,999.95
2016-11-17T07:03:06.614Z,999.96
2016-11-17T07:04:06.603Z,999.94
2016-11-17T07:05:06.588Z,999.95
2016-11-17T07:06:06.570Z,1000.01
2016-11-17T07:07:06.554Z,999.93
2016-11-17T07:08:06.537Z,999.92
2016-11-17T07:09:06.523Z,999.98
2016-11-17T07:10:06.506Z,999.99
2016-11-17T07:11:06.490Z,999.96
2016-11-17T07:12:06.476Z,999.96
2016-11-17T07:13:06.457Z,1000.05
2016-11-17T07:14:06.445Z,1000.11
2016-11-17T07:15:06.425Z,1000.1
2016-11-17T07:16:06.410Z,1000.14
2016-11-17T07:17:06.394Z,1000.11
2016-11-17T07:18:06.425Z,1000.08
2016-11-17T07:19:06.360Z,1000.07
2016-11-17T07:20:06.349Z,1000.09
2016-11-17T07:21:06.332Z,1000.08
2016-11-17T07:22:06.314Z,1000.03
2016-11-17T07:23:06.299Z,999.99
2016-11-17T07:24:06.283Z,1000
2016-11-17T07:25:06.266Z,1000.01
2016-11-17T07:26:06.251Z,1000.02
2016-11-17T07:27:06.234Z,1000.05
2016-11-17T07:28:06.218Z,1000.06
2016-11-17T07:29:06.205Z,1000.05
2016-11-17T07:30:06.186Z,1000.06
2016-11-17T07:31:06.171Z,1000.06
2016-11-17T07:32:06.156Z,1000.14
2016-11-17T07:33:06.139Z,1000.12
2016-11-17T07:34:06.123Z,1000.14
2016-11-17T07:35:06.110Z,1000.13
2016-11-17T07:36:06.091Z,1000.14
2016-11-17T07:37:06.076Z,1000.1
2016-11-17T07:38:06.061Z,1000.08
2016-11-17T07:39:06.043Z,1000.04
2016-11-17T07:40:06.028Z,1000.04
2016-11-17T07:41:06.011Z,999.99
2016-11-17T07:42:05.997Z,1000.04
2016-11-17T07:43:05.978Z,1000
2016-11-17T07:44:05.965Z,1000.03
2016-11-17T07:45:05.947Z,999.95
2016-11-17T07:46:05.935Z,999.92
2016-11-17T07:47:05.915Z,999.94
2016-11-17T07:48:05.900Z,999.95
2016-11-17T07:49:05.885Z,999.94
2016-11-17T07:50:05.869Z,999.94
2016-11-17T07:51:05.852Z,999.99
2016-11-17T07:52:05.837Z,1000.01
2016-11-17T07:53:05.823Z,999.96
2016-11-17T07:54:05.804Z,1000.04
2016-11-17T07:55:05.788Z,999.95
2016-11-17T07:56:05.772Z,1000.02
2016-11-17T07:57:05.755Z,999.99
2016-11-17T07:58:05.740Z,999.98
2016-11-17T07:59:05.728Z,1000.03
2016-11-17T08:00:05.707Z,999.96
2016-11-17T08:01:05.696Z,999.99
2016-11-17T08:02:05.679Z,999.99
2016-11-17T08:03:05.660Z,999.96
2016-11-17T08:04:05.646Z,999.94
2016-11-17T08:05:05.631Z,999.94
2016-11-17T08:06:05.616Z,999.96
2016-11-17T08:07:05.598Z,999.95
2016-11-17T08:08:05.582Z,999.98
2016-11-17T08:09:05.566Z,999.98
2016-11-17T08:10:05.551Z,1000
2016-11-17T08:11:05.532Z,1000.02
2016-11-17T08:12:05.519Z,1000.03
2016-11-17T08:13:05.503Z,1000
2016-11-17T08:14:05.486Z,1000.01
2016-11-17T08:15:05.473Z,999.99
2016-11-17T08:16:05.454Z,999.98
2016-11-17T08:17:05.440Z,999.95
2016-11-17T08:18:05.424Z,999.92
2016-11-17T08:19:05.410Z,999.92
2016-11-17T08:20:05.391Z,999.9
2016-11-17T08:21:05.378Z,999.91
2016-11-17T08:22:05.363Z,999.81
2016-11-17T08:23:05.344Z,999.88
2016-11-17T08:24:05.328Z,999.84
2016-11-17T08:25:05.311Z,999.83
2016-11-17T08:26:05.298Z,999.88
2016-11-17T08:27:05.282Z,999.91
2016-11-17T08:28:05.265Z,999.91
2016-11-17T08:29:05.250Z,999.95
2016-11-17T08:30:05.240Z,999.94
2016-11-17T08:31:05.218Z,999.88
2016-11-17T08:32:05.203Z,999.92
2016-11-17T08:33:05.189Z,999.89
2016-11-17T08:34:05.172Z,999.95
2016-11-17T08:35:05.153Z,999.94
2016-11-17T08:36:05.140Z,999.97
2016-11-17T08:37:05.123Z,999.91
2016-11-17T08:38:05.106Z,999.93
2016-11-17T08:39:05.092Z,999.87
2016-11-17T08:40:05.077Z,999.89
2016-11-17T08:41:05.061Z,999.87
2016-11-17T08:42:05.042Z,999.86
2016-11-17T08:43:05.033Z,999.81
2016-11-17T08:44:05.011Z,999.85
2016-11-17T08:45:04.995Z,999.85
2016-11-17T08:46:04.980Z,999.82
2016-11-17T08:47:04.963Z,999.83
2016-11-17T08:48:04.957Z,999.81
2016-11-17T08:49:04.928Z,999.79
2016-11-17T08:50:04.919Z,999.83
2016-11-17T08:51:04.899Z,999.82
2016-11-17T08:52:04.886Z,999.8
2016-11-17T08:53:04.867Z,999.78
2016-11-17T08:54:04.851Z,999.76
2016-11-17T08:55:04.835Z,999.8
2016-11-17T08:56:04.820Z,999.73
2016-11-17T08:57:04.805Z,999.82
2016-11-17T08:58:04.788Z,999.81
2016-11-17T08:59:04.772Z,999.82
2016-11-17T09:00:04.753Z,999.82
2016-11-17T09:01:04.739Z,999.78
2016-11-17T09:02:04.722Z,999.76
2016-11-17T09:03:04.708Z,999.8
2016-11-17T09:04:04.691Z,999.82
2016-11-17T09:05:04.678Z,999.77
2016-11-17T09:06:04.660Z,999.78
2016-11-17T09:07:04.645Z,999.71
2016-11-17T09:08:04.632Z,999.75
2016-11-17T09:09:04.616Z,999.77
2016-11-17T09:10:04.595Z,999.8
2016-11-17T09:11:04.578Z,999.76
2016-11-17T09:12:04.565Z,999.75
2016-11-17T09:13:04.545Z,999.65
2016-11-17T09:14:04.534Z,999.67
2016-11-17T09:15:04.515Z,999.69
2016-11-17T09:16:04.495Z,999.69
2016-11-17T09:17:04.484Z,999.66
2016-11-17T09:18:04.469Z,999.67
2016-11-17T09:19:04.451Z,999.7
2016-11-17T09:20:04.440Z,999.76
2016-11-17T09:21:04.421Z,999.75
2016-11-17T09:22:04.404Z,999.66
2016-11-17T09:23:04.389Z,999.64
2016-11-17T09:24:04.377Z,999.67
2016-11-17T09:25:04.359Z,999.68
2016-11-17T09:26:04.341Z,999.65
2016-11-17T09:27:04.326Z,999.67
2016-11-17T09:28:04.311Z,999.59
2016-11-17T09:29:04.295Z,999.54
2016-11-17T09:30:04.278Z,999.53
2016-11-17T09:31:04.261Z,999.56
2016-11-17T09:32:04.247Z,999.56
2016-11-17T09:33:04.229Z,999.56
2016-11-17T09:34:04.213Z,999.57
2016-11-17T09:35:04.198Z,999.58
2016-11-17T09:36:04.183Z,999.61
2016-11-17T09:37:04.168Z,999.63
2016-11-17T09:38:04.152Z,999.63
2016-11-17T09:39:04.137Z,999.6
2016-11-17T09:40:04.118Z,999.6
2016-11-17T09:41:04.128Z,999.66
2016-11-17T09:42:04.085Z,999.68
2016-11-17T09:43:04.071Z,999.63
2016-11-17T09:44:04.055Z,999.67
2016-11-17T09:45:04.036Z,999.63
2016-11-17T09:46:04.024Z,999.64
2016-11-17T09:47:04.007Z,999.57
2016-11-17T09:48:03.992Z,999.59
2016-11-17T09:49:03.978Z,999.61
2016-11-17T09:50:03.960Z,999.65
2016-11-17T09:51:03.945Z,999.67
2016-11-17T09:52:03.929Z,999.63
2016-11-17T09:53:03.914Z,999.64
2016-11-17T09:54:03.898Z,999.6
2016-11-17T09:55:03.882Z,999.62
2016-11-17T09:56:03.869Z,999.58
2016-11-17T09:57:03.852Z,999.58
2016-11-17T09:58:03.834Z,999.55
2016-11-17T09:59:03.819Z,999.57
2016-11-17T10:00:03.806Z,999.52
2016-11-17T10:01:03.789Z,999.5
2016-11-17T10:02:03.772Z,999.43
2016-11-17T10:03:03.756Z,999.49
2016-11-17T10:04:03.739Z,999.42
2016-11-17T10:05:03.722Z,999.43
2016-11-17T10:06:03.713Z,999.38
2016-11-17T10:07:03.692Z,999.38
2016-11-17T10:08:03.675Z,999.36
2016-11-17T10:09:03.661Z,999.37
2016-11-17T10:10:03.643Z,999.4
2016-11-17T10:11:03.631Z,999.32
2016-11-17T10:12:03.616Z,999.36
2016-11-17T10:13:03.597Z,999.25
2016-11-17T10:14:03.582Z,999.26
2016-11-17T10:15:03.566Z,999.25
2016-11-17T10:16:03.551Z,999.19
2016-11-17T10:17:03.534Z,999.13
2016-11-17T10:18:03.521Z,999.05
2016-11-17T10:19:03.504Z,999.05
2016-11-17T10:20:03.489Z,999.1
2016-11-17T10:21:03.472Z,999.03
2016-11-17T10:22:03.457Z,999.02
2016-11-17T10:23:03.441Z,999.02
2016-11-17T10:24:03.427Z,998.97
2016-11-17T10:25:03.407Z,998.91
2016-11-17T10:26:03.393Z,998.84
2016-11-17T10:27:03.380Z,998.85
2016-11-17T10:28:03.361Z,998.83
2016-11-17T10:29:03.348Z,998.82
2016-11-17T10:30:03.333Z,998.78
2016-11-17T10:31:03.316Z,998.76
2016-11-17T10:32:03.300Z,998.77
2016-11-17T10:33:03.284Z,998.71
2016-11-17T10:34:03.272Z,998.7
2016-11-17T10:35:03.251Z,998.7
2016-11-17T10:36:03.237Z,998.7
2016-11-17T10:37:03.220Z,998.67
2016-11-17T10:38:03.203Z,998.61
2016-11-17T10:39:03.186Z,998.64
2016-11-17T10:40:03.178Z,998.63
2016-11-17T10:41:03.160Z,998.58
2016-11-17T10:42:03.142Z,998.58
2016-11-17T10:43:03.125Z,998.54
2016-11-17T10:44:03.110Z,998.49
2016-11-17T10:45:03.095Z,998.49
2016-11-17T10:46:03.078Z,998.55
2016-11-17T10:47:03.061Z,998.51
2016-11-17T10:48:03.051Z,998.57
2016-11-17T10:49:03.035Z,998.63
2016-11-17T10:50:03.015Z,998.59
2016-11-17T10:51:03.000Z,998.62
2016-11-17T10:52:02.987Z,998.59
2016-11-17T10:53:02.967Z,998.58
2016-11-17T10:54:02.952Z,998.53
2016-11-17T10:55:02.940Z,998.5
2016-11-17T10:56:02.922Z,998.47
2016-11-17T10:57:02.908Z,998.44
2016-11-17T10:58:02.889Z,998.49
2016-11-17T10:59:02.875Z,998.41
2016-11-17T11:00:02.857Z,998.4
2016-11-17T11:01:02.842Z,998.33
2016-11-17T11:02:02.827Z,998.28
2016-11-17T11:03:02.812Z,998.2
2016-11-17T11:04:02.795Z,998.25
2016-11-17T11:05:02.779Z,998.2
2016-11-17T11:06:02.766Z,998.2
2016-11-17T11:07:02.749Z,998.15
2016-11-17T11:08:02.734Z,998.17
2016-11-17T11:09:02.715Z,998.2
2016-11-17T11:10:02.704Z,998.22
2016-11-17T11:11:02.688Z,998.22
2016-11-17T11:12:02.669Z,998.17
2016-11-17T11:13:02.656Z,998.26
2016-11-17T11:14:02.639Z,998.31
2016-11-17T11:15:02.624Z,998.19
2016-11-17T11:16:02.608Z,998.23
2016-11-17T11:17:02.594Z,998.16
2016-11-17T11:18:02.576Z,998.14
2016-11-17T11:19:02.563Z,998.13
2016-11-17T11:20:02.544Z,998.12
2016-11-17T11:21:02.535Z,998.13
2016-11-17T11:22:02.510Z,998.07
2016-11-17T11:23:02.496Z,998.06
2016-11-17T11:24:02.481Z,998.06
2016-11-17T11:25:02.469Z,998.06
2016-11-17T11:26:02.450Z,998.02
2016-11-17T11:27:02.433Z,998.09
2016-11-17T11:28:02.420Z,998.04
2016-11-17T11:29:02.407Z,998
2016-11-17T11:30:02.389Z,998.03
2016-11-17T11:31:02.371Z,998
2016-11-17T11:32:02.358Z,997.99
2016-11-17T11:33:02.348Z,998
2016-11-17T11:34:02.378Z,997.93
2016-11-17T11:35:02.310Z,997.92
2016-11-17T11:36:02.295Z,997.95
2016-11-17T11:37:02.280Z,997.95
2016-11-17T11:38:02.266Z,997.97
2016-11-17T11:39:02.297Z,997.88
2016-11-17T11:40:02.233Z,997.91
2016-11-17T11:41:02.218Z,997.87
2016-11-17T11:42:02.200Z,997.86
2016-11-17T11:43:02.185Z,997.84
2016-11-17T11:44:02.174Z,997.82
2016-11-17T11:45:02.157Z,997.76
2016-11-17T11:46:02.140Z,997.8
2016-11-17T11:47:02.124Z,997.79
2016-11-17T11:48:02.108Z,997.76
2016-11-17T11:49:02.092Z,997.74
2016-11-17T11:50:02.077Z,997.7
2016-11-17T11:51:02.064Z,997.76
2016-11-17T11:52:02.045Z,997.66
2016-11-17T11:53:02.030Z,997.7
2016-11-17T11:54:02.020Z,997.75
2016-11-17T11:55:01.999Z,997.79
2016-11-17T11:56:01.982Z,997.71
2016-11-17T11:57:01.969Z,997.7
2016-11-17T11:58:01.952Z,997.74
2016-11-17T11:59:01.939Z,997.69
2016-11-17T12:00:01.921Z,997.74
2016-11-17T12:01:01.907Z,997.72
2016-11-17T12:02:01.891Z,997.7
2016-11-17T12:03:01.874Z,997.74
2016-11-17T12:04:01.857Z,997.77
2016-11-17T12:05:01.856Z,997.79
2016-11-17T12:06:01.828Z,997.67
2016-11-17T12:07:01.811Z,997.76
2016-11-17T12:08:01.796Z,997.75
2016-11-17T12:09:01.784Z,997.63
2016-11-17T12:10:01.766Z,997.7
2016-11-17T12:11:01.751Z,997.69
2016-11-17T12:12:01.735Z,997.65
2016-11-17T12:13:01.720Z,997.68
2016-11-17T12:14:01.703Z,997.69
2016-11-17T12:15:01.696Z,997.7
2016-11-17T12:16:01.674Z,997.76
2016-11-17T12:17:01.657Z,997.77
2016-11-17T12:18:01.641Z,997.74
2016-11-17T12:19:01.626Z,997.72
2016-11-17T12:20:01.610Z,997.73